sensor_id;sensor_type;location;lat;lon;timestamp;P1;durP1;ratioP1;P2;durP2;ratioP2
48665;SDS011;34452;50.796;4.994;2023-10-13T00:01:48;18.25;;;8.95;;
48665;SDS011;34452;50.796;4.994;2023-10-13T00:04:17;14.57;;;8.68;;
48665;SDS011;34452;50.796;4.994;2023-10-13T00:06:50;15.45;;;8.45;;
48665;SDS011;34452;50.796;4.994;2023-10-13T00:09:22;17.80;;;9.15;;
48665;SDS011;34452;50.796;4.994;2023-10-13T00:11:57;17.52;;;8.43;;
48665;SDS011;34452;50.796;4.994;2023-10-13T00:14:26;15.25;;;9.15;;
48665;SDS011;34452;50.796;4.994;2023-10-13T00:17:03;20.85;;;9.68;;
48665;SDS011;34452;50.796;4.994;2023-10-13T00:19:34;16.00;;;8.82;;
48665;SDS011;34452;50.796;4.994;2023-10-13T00:22:17;18.17;;;9.27;;
48665;SDS011;34452;50.796;4.994;2023-10-13T00:24:45;17.35;;;9.15;;
48665;SDS011;34452;50.796;4.994;2023-10-13T00:29:53;17.13;;;8.93;;
48665;SDS011;34452;50.796;4.994;2023-10-13T00:32:40;18.00;;;8.38;;
48665;SDS011;34452;50.796;4.994;2023-10-13T00:35:10;18.90;;;9.00;;
48665;SDS011;34452;50.796;4.994;2023-10-13T00:37:52;19.00;;;9.80;;
48665;SDS011;34452;50.796;4.994;2023-10-13T00:40:23;18.05;;;9.30;;
48665;SDS011;34452;50.796;4.994;2023-10-13T00:42:56;18.48;;;8.45;;
48665;SDS011;34452;50.796;4.994;2023-10-13T00:45:45;18.73;;;9.82;;
48665;SDS011;34452;50.796;4.994;2023-10-13T00:48:32;12.65;;;8.38;;
48665;SDS011;34452;50.796;4.994;2023-10-13T00:51:06;15.98;;;9.65;;
48665;SDS011;34452;50.796;4.994;2023-10-13T00:53:32;19.38;;;10.18;;
48665;SDS011;34452;50.796;4.994;2023-10-13T00:56:05;18.65;;;9.88;;
48665;SDS011;34452;50.796;4.994;2023-10-13T00:58:36;18.33;;;9.27;;
48665;SDS011;34452;50.796;4.994;2023-10-13T01:01:05;16.50;;;9.20;;
48665;SDS011;34452;50.796;4.994;2023-10-13T01:03:45;19.50;;;9.70;;
48665;SDS011;34452;50.796;4.994;2023-10-13T01:06:17;21.88;;;9.23;;
48665;SDS011;34452;50.796;4.994;2023-10-13T01:08:46;19.15;;;8.77;;
48665;SDS011;34452;50.796;4.994;2023-10-13T01:11:18;16.35;;;9.52;;
48665;SDS011;34452;50.796;4.994;2023-10-13T01:13:44;16.40;;;9.13;;
48665;SDS011;34452;50.796;4.994;2023-10-13T01:16:16;17.73;;;9.30;;
48665;SDS011;34452;50.796;4.994;2023-10-13T01:18:42;20.05;;;10.18;;
48665;SDS011;34452;50.796;4.994;2023-10-13T01:21:15;19.02;;;10.35;;
48665;SDS011;34452;50.796;4.994;2023-10-13T01:23:44;17.58;;;9.35;;
48665;SDS011;34452;50.796;4.994;2023-10-13T01:26:12;18.58;;;10.25;;
48665;SDS011;34452;50.796;4.994;2023-10-13T01:28:42;17.83;;;9.48;;
48665;SDS011;34452;50.796;4.994;2023-10-13T01:31:12;19.08;;;9.98;;
48665;SDS011;34452;50.796;4.994;2023-10-13T01:33:52;19.23;;;10.70;;
48665;SDS011;34452;50.796;4.994;2023-10-13T01:36:24;19.55;;;10.00;;
48665;SDS011;34452;50.796;4.994;2023-10-13T01:38:51;18.23;;;10.85;;
48665;SDS011;34452;50.796;4.994;2023-10-13T01:41:18;18.98;;;10.23;;
48665;SDS011;34452;50.796;4.994;2023-10-13T01:43:45;21.15;;;10.27;;
48665;SDS011;34452;50.796;4.994;2023-10-13T01:46:11;23.27;;;10.48;;
48665;SDS011;34452;50.796;4.994;2023-10-13T01:48:47;19.98;;;11.23;;
48665;SDS011;34452;50.796;4.994;2023-10-13T01:51:13;20.13;;;11.18;;
48665;SDS011;34452;50.796;4.994;2023-10-13T01:53:39;26.65;;;11.68;;
48665;SDS011;34452;50.796;4.994;2023-10-13T01:56:06;25.38;;;11.80;;
48665;SDS011;34452;50.796;4.994;2023-10-13T01:58:36;20.15;;;10.55;;
48665;SDS011;34452;50.796;4.994;2023-10-13T02:01:03;20.48;;;10.80;;
48665;SDS011;34452;50.796;4.994;2023-10-13T02:03:32;18.75;;;11.43;;
48665;SDS011;34452;50.796;4.994;2023-10-13T02:05:58;25.83;;;11.07;;
48665;SDS011;34452;50.796;4.994;2023-10-13T02:08:29;18.95;;;11.68;;
48665;SDS011;34452;50.796;4.994;2023-10-13T02:13:23;30.90;;;11.52;;
48665;SDS011;34452;50.796;4.994;2023-10-13T02:15:55;21.63;;;10.90;;
48665;SDS011;34452;50.796;4.994;2023-10-13T02:18:22;19.95;;;11.13;;
48665;SDS011;34452;50.796;4.994;2023-10-13T02:20:53;23.48;;;11.15;;
48665;SDS011;34452;50.796;4.994;2023-10-13T02:23:29;23.35;;;10.93;;
48665;SDS011;34452;50.796;4.994;2023-10-13T02:25:56;17.00;;;9.82;;
48665;SDS011;34452;50.796;4.994;2023-10-13T02:28:36;26.15;;;10.60;;
48665;SDS011;34452;50.796;4.994;2023-10-13T02:31:02;21.33;;;9.77;;
48665;SDS011;34452;50.796;4.994;2023-10-13T02:33:30;19.65;;;9.30;;
48665;SDS011;34452;50.796;4.994;2023-10-13T02:35:56;16.75;;;9.52;;
48665;SDS011;34452;50.796;4.994;2023-10-13T02:38:23;21.08;;;9.90;;
48665;SDS011;34452;50.796;4.994;2023-10-13T02:40:54;20.13;;;9.75;;
48665;SDS011;34452;50.796;4.994;2023-10-13T02:43:21;16.83;;;9.88;;
48665;SDS011;34452;50.796;4.994;2023-10-13T02:48:24;17.55;;;8.52;;
48665;SDS011;34452;50.796;4.994;2023-10-13T02:50:55;15.80;;;9.20;;
48665;SDS011;34452;50.796;4.994;2023-10-13T02:53:30;18.80;;;9.25;;
48665;SDS011;34452;50.796;4.994;2023-10-13T02:55:56;16.48;;;8.75;;
48665;SDS011;34452;50.796;4.994;2023-10-13T02:58:29;16.77;;;8.90;;
48665;SDS011;34452;50.796;4.994;2023-10-13T03:01:06;18.83;;;8.43;;
48665;SDS011;34452;50.796;4.994;2023-10-13T03:03:55;14.48;;;8.13;;
48665;SDS011;34452;50.796;4.994;2023-10-13T03:06:23;20.67;;;8.15;;
48665;SDS011;34452;50.796;4.994;2023-10-13T03:08:57;15.70;;;8.35;;
48665;SDS011;34452;50.796;4.994;2023-10-13T03:11:38;14.63;;;7.90;;
48665;SDS011;34452;50.796;4.994;2023-10-13T03:14:12;21.00;;;8.32;;
48665;SDS011;34452;50.796;4.994;2023-10-13T03:16:50;15.63;;;7.90;;
48665;SDS011;34452;50.796;4.994;2023-10-13T03:19:20;14.00;;;7.40;;
48665;SDS011;34452;50.796;4.994;2023-10-13T03:24:29;18.70;;;7.70;;
48665;SDS011;34452;50.796;4.994;2023-10-13T03:27:00;15.13;;;6.63;;
48665;SDS011;34452;50.796;4.994;2023-10-13T03:29:42;19.95;;;7.60;;
48665;SDS011;34452;50.796;4.994;2023-10-13T03:32:12;15.65;;;6.45;;
48665;SDS011;34452;50.796;4.994;2023-10-13T03:34:43;16.73;;;7.68;;
48665;SDS011;34452;50.796;4.994;2023-10-13T03:37:32;16.48;;;7.25;;
48665;SDS011;34452;50.796;4.994;2023-10-13T03:40:04;15.43;;;7.20;;
48665;SDS011;34452;50.796;4.994;2023-10-13T03:42:46;17.40;;;6.70;;
48665;SDS011;34452;50.796;4.994;2023-10-13T03:48:14;13.57;;;5.88;;
48665;SDS011;34452;50.796;4.994;2023-10-13T03:51:01;13.25;;;6.03;;
48665;SDS011;34452;50.796;4.994;2023-10-13T03:53:40;20.95;;;7.07;;
48665;SDS011;34452;50.796;4.994;2023-10-13T03:56:26;12.50;;;5.85;;
48665;SDS011;34452;50.796;4.994;2023-10-13T03:58:57;12.82;;;6.38;;
48665;SDS011;34452;50.796;4.994;2023-10-13T04:01:31;15.88;;;6.40;;
48665;SDS011;34452;50.796;4.994;2023-10-13T04:04:12;14.68;;;5.65;;
48665;SDS011;34452;50.796;4.994;2023-10-13T04:06:56;14.57;;;6.32;;
48665;SDS011;34452;50.796;4.994;2023-10-13T04:09:35;19.95;;;6.18;;
48665;SDS011;34452;50.796;4.994;2023-10-13T04:12:03;19.92;;;6.88;;
48665;SDS011;34452;50.796;4.994;2023-10-13T04:14:30;21.08;;;7.03;;
48665;SDS011;34452;50.796;4.994;2023-10-13T04:17:17;13.02;;;6.35;;
48665;SDS011;34452;50.796;4.994;2023-10-13T04:19:53;13.52;;;6.45;;
48665;SDS011;34452;50.796;4.994;2023-10-13T04:22:35;18.42;;;6.55;;
48665;SDS011;34452;50.796;4.994;2023-10-13T04:25:24;19.48;;;5.90;;
48665;SDS011;34452;50.796;4.994;2023-10-13T04:28:09;25.35;;;5.75;;
48665;SDS011;34452;50.796;4.994;2023-10-13T04:30:46;19.08;;;6.07;;
48665;SDS011;34452;50.796;4.994;2023-10-13T04:33:15;16.87;;;5.23;;
48665;SDS011;34452;50.796;4.994;2023-10-13T04:36:03;21.83;;;5.07;;
48665;SDS011;34452;50.796;4.994;2023-10-13T04:38:49;20.23;;;5.55;;
48665;SDS011;34452;50.796;4.994;2023-10-13T04:41:32;22.13;;;5.13;;
48665;SDS011;34452;50.796;4.994;2023-10-13T04:44:09;20.38;;;5.43;;
48665;SDS011;34452;50.796;4.994;2023-10-13T04:46:48;21.95;;;5.72;;
48665;SDS011;34452;50.796;4.994;2023-10-13T04:49:14;15.63;;;5.20;;
48665;SDS011;34452;50.796;4.994;2023-10-13T04:52:03;18.40;;;4.93;;
48665;SDS011;34452;50.796;4.994;2023-10-13T04:54:33;23.77;;;5.47;;
48665;SDS011;34452;50.796;4.994;2023-10-13T04:57:20;14.35;;;4.82;;
48665;SDS011;34452;50.796;4.994;2023-10-13T04:59:59;16.30;;;6.63;;
48665;SDS011;34452;50.796;4.994;2023-10-13T05:02:29;28.52;;;5.60;;
48665;SDS011;34452;50.796;4.994;2023-10-13T05:05:07;13.73;;;4.93;;
48665;SDS011;34452;50.796;4.994;2023-10-13T05:07:43;16.58;;;5.10;;
48665;SDS011;34452;50.796;4.994;2023-10-13T05:10:28;15.85;;;5.03;;
48665;SDS011;34452;50.796;4.994;2023-10-13T05:13:13;17.38;;;5.68;;
48665;SDS011;34452;50.796;4.994;2023-10-13T05:15:58;20.52;;;5.25;;
48665;SDS011;34452;50.796;4.994;2023-10-13T05:18:42;14.25;;;5.32;;
48665;SDS011;34452;50.796;4.994;2023-10-13T05:21:26;15.18;;;5.50;;
48665;SDS011;34452;50.796;4.994;2023-10-13T05:24:10;15.85;;;5.25;;
48665;SDS011;34452;50.796;4.994;2023-10-13T05:26:55;19.92;;;5.40;;
48665;SDS011;34452;50.796;4.994;2023-10-13T05:29:43;15.77;;;4.72;;
48665;SDS011;34452;50.796;4.994;2023-10-13T05:32:28;13.88;;;5.57;;
48665;SDS011;34452;50.796;4.994;2023-10-13T05:35:13;13.45;;;5.03;;
48665;SDS011;34452;50.796;4.994;2023-10-13T05:37:58;18.55;;;5.15;;
48665;SDS011;34452;50.796;4.994;2023-10-13T05:40:59;14.85;;;5.00;;
48665;SDS011;34452;50.796;4.994;2023-10-13T05:43:44;19.38;;;6.15;;
48665;SDS011;34452;50.796;4.994;2023-10-13T05:46:29;15.15;;;4.85;;
48665;SDS011;34452;50.796;4.994;2023-10-13T05:49:07;23.50;;;5.68;;
48665;SDS011;34452;50.796;4.994;2023-10-13T05:51:36;17.80;;;5.75;;
48665;SDS011;34452;50.796;4.994;2023-10-13T05:54:08;22.20;;;5.53;;
48665;SDS011;34452;50.796;4.994;2023-10-13T05:56:41;18.60;;;5.20;;
48665;SDS011;34452;50.796;4.994;2023-10-13T05:59:43;18.67;;;5.03;;
48665;SDS011;34452;50.796;4.994;2023-10-13T06:02:28;17.38;;;5.75;;
48665;SDS011;34452;50.796;4.994;2023-10-13T06:05:13;22.20;;;6.00;;
48665;SDS011;34452;50.796;4.994;2023-10-13T06:07:57;17.40;;;5.05;;
48665;SDS011;34452;50.796;4.994;2023-10-13T06:10:42;22.98;;;5.60;;
48665;SDS011;34452;50.796;4.994;2023-10-13T06:13:28;17.60;;;4.90;;
48665;SDS011;34452;50.796;4.994;2023-10-13T06:16:13;14.30;;;4.78;;
48665;SDS011;34452;50.796;4.994;2023-10-13T06:18:59;13.50;;;4.50;;
48665;SDS011;34452;50.796;4.994;2023-10-13T06:21:43;19.60;;;5.13;;
48665;SDS011;34452;50.796;4.994;2023-10-13T06:24:28;13.35;;;5.18;;
48665;SDS011;34452;50.796;4.994;2023-10-13T06:27:13;18.50;;;4.97;;
48665;SDS011;34452;50.796;4.994;2023-10-13T06:29:58;20.23;;;6.35;;
48665;SDS011;34452;50.796;4.994;2023-10-13T06:32:26;17.35;;;4.85;;
48665;SDS011;34452;50.796;4.994;2023-10-13T06:34:55;22.50;;;5.65;;
48665;SDS011;34452;50.796;4.994;2023-10-13T06:37:43;17.70;;;5.50;;
48665;SDS011;34452;50.796;4.994;2023-10-13T06:40:10;17.40;;;4.63;;
48665;SDS011;34452;50.796;4.994;2023-10-13T06:42:55;25.08;;;6.20;;
48665;SDS011;34452;50.796;4.994;2023-10-13T06:45:36;21.45;;;5.22;;
48665;SDS011;34452;50.796;4.994;2023-10-13T06:48:02;21.75;;;6.10;;
48665;SDS011;34452;50.796;4.994;2023-10-13T06:50:30;25.77;;;5.30;;
48665;SDS011;34452;50.796;4.994;2023-10-13T06:53:04;15.10;;;4.80;;
48665;SDS011;34452;50.796;4.994;2023-10-13T06:55:30;18.80;;;5.95;;
48665;SDS011;34452;50.796;4.994;2023-10-13T06:58:00;17.75;;;5.32;;
48665;SDS011;34452;50.796;4.994;2023-10-13T07:00:27;15.40;;;4.63;;
48665;SDS011;34452;50.796;4.994;2023-10-13T07:03:04;16.42;;;4.75;;
48665;SDS011;34452;50.796;4.994;2023-10-13T07:05:43;24.05;;;4.60;;
48665;SDS011;34452;50.796;4.994;2023-10-13T07:08:09;16.60;;;5.20;;
48665;SDS011;34452;50.796;4.994;2023-10-13T07:10:52;24.25;;;5.13;;
48665;SDS011;34452;50.796;4.994;2023-10-13T07:13:33;14.25;;;5.00;;
48665;SDS011;34452;50.796;4.994;2023-10-13T07:16:12;15.05;;;4.93;;
48665;SDS011;34452;50.796;4.994;2023-10-13T07:18:38;20.85;;;5.15;;
48665;SDS011;34452;50.796;4.994;2023-10-13T07:21:16;22.88;;;5.38;;
48665;SDS011;34452;50.796;4.994;2023-10-13T07:23:41;21.80;;;5.38;;
48665;SDS011;34452;50.796;4.994;2023-10-13T07:26:21;17.17;;;4.90;;
48665;SDS011;34452;50.796;4.994;2023-10-13T07:28:48;13.73;;;4.75;;
48665;SDS011;34452;50.796;4.994;2023-10-13T07:31:17;16.52;;;4.82;;
48665;SDS011;34452;50.796;4.994;2023-10-13T07:33:46;16.23;;;4.63;;
48665;SDS011;34452;50.796;4.994;2023-10-13T07:36:12;11.75;;;5.55;;
48665;SDS011;34452;50.796;4.994;2023-10-13T07:38:43;26.45;;;5.78;;
48665;SDS011;34452;50.796;4.994;2023-10-13T07:41:35;23.23;;;4.63;;
48665;SDS011;34452;50.796;4.994;2023-10-13T07:44:01;18.15;;;5.55;;
48665;SDS011;34452;50.796;4.994;2023-10-13T07:46:30;14.38;;;4.75;;
48665;SDS011;34452;50.796;4.994;2023-10-13T07:48:58;16.70;;;5.22;;
48665;SDS011;34452;50.796;4.994;2023-10-13T07:51:45;20.67;;;5.07;;
48665;SDS011;34452;50.796;4.994;2023-10-13T07:54:14;17.27;;;4.57;;
48665;SDS011;34452;50.796;4.994;2023-10-13T07:56:47;17.90;;;5.03;;
48665;SDS011;34452;50.796;4.994;2023-10-13T08:01:42;15.30;;;5.05;;
48665;SDS011;34452;50.796;4.994;2023-10-13T08:04:08;15.38;;;4.30;;
48665;SDS011;34452;50.796;4.994;2023-10-13T08:06:38;23.55;;;5.95;;
48665;SDS011;34452;50.796;4.994;2023-10-13T08:09:08;14.68;;;4.95;;
48665;SDS011;34452;50.796;4.994;2023-10-13T08:11:37;17.30;;;5.75;;
48665;SDS011;34452;50.796;4.994;2023-10-13T08:14:05;31.77;;;5.25;;
48665;SDS011;34452;50.796;4.994;2023-10-13T08:16:57;15.38;;;5.38;;
48665;SDS011;34452;50.796;4.994;2023-10-13T08:19:28;16.20;;;5.05;;
48665;SDS011;34452;50.796;4.994;2023-10-13T08:22:04;11.98;;;5.38;;
48665;SDS011;34452;50.796;4.994;2023-10-13T08:24:40;14.88;;;5.45;;
48665;SDS011;34452;50.796;4.994;2023-10-13T08:27:06;19.60;;;5.30;;
48665;SDS011;34452;50.796;4.994;2023-10-13T08:29:51;14.15;;;5.18;;
48665;SDS011;34452;50.796;4.994;2023-10-13T08:32:23;23.08;;;5.60;;
48665;SDS011;34452;50.796;4.994;2023-10-13T08:34:52;19.45;;;5.45;;
48665;SDS011;34452;50.796;4.994;2023-10-13T08:37:19;22.23;;;5.68;;
48665;SDS011;34452;50.796;4.994;2023-10-13T08:39:49;18.40;;;6.05;;
48665;SDS011;34452;50.796;4.994;2023-10-13T08:42:34;17.92;;;6.03;;
48665;SDS011;34452;50.796;4.994;2023-10-13T08:45:05;17.45;;;5.45;;
48665;SDS011;34452;50.796;4.994;2023-10-13T08:47:52;13.23;;;5.15;;
48665;SDS011;34452;50.796;4.994;2023-10-13T08:50:33;20.15;;;5.78;;
48665;SDS011;34452;50.796;4.994;2023-10-13T08:53:18;21.75;;;6.45;;
48665;SDS011;34452;50.796;4.994;2023-10-13T08:55:57;17.67;;;5.28;;
48665;SDS011;34452;50.796;4.994;2023-10-13T08:58:39;19.02;;;6.50;;
48665;SDS011;34452;50.796;4.994;2023-10-13T09:01:21;18.40;;;5.95;;
48665;SDS011;34452;50.796;4.994;2023-10-13T09:06:46;12.25;;;5.60;;
48665;SDS011;34452;50.796;4.994;2023-10-13T09:09:26;16.92;;;5.70;;
48665;SDS011;34452;50.796;4.994;2023-10-13T09:11:53;14.90;;;5.95;;
48665;SDS011;34452;50.796;4.994;2023-10-13T09:14:53;13.85;;;6.47;;
48665;SDS011;34452;50.796;4.994;2023-10-13T09:17:26;101.00;;;53.13;;
48665;SDS011;34452;50.796;4.994;2023-10-13T09:20:06;33.03;;;11.85;;
48665;SDS011;34452;50.796;4.994;2023-10-13T09:22:52;57.58;;;23.70;;
48665;SDS011;34452;50.796;4.994;2023-10-13T09:25:36;25.73;;;10.88;;
48665;SDS011;34452;50.796;4.994;2023-10-13T09:28:12;121.97;;;64.93;;
48665;SDS011;34452;50.796;4.994;2023-10-13T09:30:47;151.07;;;91.65;;
48665;SDS011;34452;50.796;4.994;2023-10-13T09:33:21;226.75;;;121.60;;
48665;SDS011;34452;50.796;4.994;2023-10-13T09:36:06;92.85;;;47.42;;
48665;SDS011;34452;50.796;4.994;2023-10-13T09:38:33;51.97;;;26.90;;
48665;SDS011;34452;50.796;4.994;2023-10-13T09:41:01;253.70;;;132.18;;
48665;SDS011;34452;50.796;4.994;2023-10-13T09:43:45;59.67;;;29.98;;
48665;SDS011;34452;50.796;4.994;2023-10-13T09:48:45;62.95;;;24.25;;
48665;SDS011;34452;50.796;4.994;2023-10-13T09:51:14;27.95;;;13.60;;
48665;SDS011;34452;50.796;4.994;2023-10-13T09:53:56;33.38;;;11.95;;
48665;SDS011;34452;50.796;4.994;2023-10-13T09:56:42;21.58;;;8.40;;
48665;SDS011;34452;50.796;4.994;2023-10-13T09:59:21;22.85;;;6.80;;
48665;SDS011;34452;50.796;4.994;2023-10-13T10:02:05;15.88;;;7.43;;
48665;SDS011;34452;50.796;4.994;2023-10-13T10:04:34;19.55;;;6.97;;
48665;SDS011;34452;50.796;4.994;2023-10-13T10:07:28;21.08;;;6.82;;
48665;SDS011;34452;50.796;4.994;2023-10-13T10:09:58;15.15;;;6.25;;
48665;SDS011;34452;50.796;4.994;2023-10-13T10:17:56;24.25;;;6.75;;
48665;SDS011;34452;50.796;4.994;2023-10-13T10:20:34;19.98;;;5.75;;
48665;SDS011;34452;50.796;4.994;2023-10-13T10:23:09;15.38;;;6.07;;
48665;SDS011;34452;50.796;4.994;2023-10-13T10:25:47;30.45;;;6.68;;
48665;SDS011;34452;50.796;4.994;2023-10-13T10:28:16;22.95;;;5.13;;
48665;SDS011;34452;50.796;4.994;2023-10-13T10:30:44;14.75;;;5.70;;
48665;SDS011;34452;50.796;4.994;2023-10-13T10:33:11;28.38;;;6.03;;
48665;SDS011;34452;50.796;4.994;2023-10-13T10:35:44;25.40;;;6.72;;
48665;SDS011;34452;50.796;4.994;2023-10-13T10:38:12;21.08;;;6.43;;
48665;SDS011;34452;50.796;4.994;2023-10-13T10:41:00;28.02;;;7.00;;
48665;SDS011;34452;50.796;4.994;2023-10-13T10:43:30;30.15;;;10.85;;
48665;SDS011;34452;50.796;4.994;2023-10-13T10:46:25;43.25;;;10.95;;
48665;SDS011;34452;50.796;4.994;2023-10-13T10:49:03;28.38;;;10.10;;
48665;SDS011;34452;50.796;4.994;2023-10-13T10:51:33;51.95;;;15.10;;
48665;SDS011;34452;50.796;4.994;2023-10-13T10:54:17;54.15;;;15.73;;
48665;SDS011;34452;50.796;4.994;2023-10-13T10:56:44;175.77;;;77.53;;
48665;SDS011;34452;50.796;4.994;2023-10-13T10:59:18;77.40;;;36.42;;
48665;SDS011;34452;50.796;4.994;2023-10-13T11:01:45;56.83;;;24.02;;
48665;SDS011;34452;50.796;4.994;2023-10-13T11:04:17;51.40;;;18.02;;
48665;SDS011;34452;50.796;4.994;2023-10-13T11:06:50;44.65;;;18.63;;
48665;SDS011;34452;50.796;4.994;2023-10-13T11:11:52;50.20;;;17.58;;
48665;SDS011;34452;50.796;4.994;2023-10-13T11:14:22;62.95;;;25.42;;
48665;SDS011;34452;50.796;4.994;2023-10-13T11:16:52;56.30;;;18.50;;
48665;SDS011;34452;50.796;4.994;2023-10-13T11:19:35;53.78;;;18.63;;
48665;SDS011;34452;50.796;4.994;2023-10-13T11:22:12;185.02;;;83.45;;
48665;SDS011;34452;50.796;4.994;2023-10-13T11:24:58;152.65;;;75.55;;
48665;SDS011;34452;50.796;4.994;2023-10-13T11:27:31;132.98;;;60.97;;
48665;SDS011;34452;50.796;4.994;2023-10-13T11:30:16;108.93;;;48.83;;
48665;SDS011;34452;50.796;4.994;2023-10-13T11:32:56;126.82;;;59.15;;
48665;SDS011;34452;50.796;4.994;2023-10-13T11:35:36;88.88;;;38.05;;
48665;SDS011;34452;50.796;4.994;2023-10-13T11:38:20;51.13;;;19.55;;
48665;SDS011;34452;50.796;4.994;2023-10-13T11:46:15;81.88;;;35.40;;
48665;SDS011;34452;50.796;4.994;2023-10-13T11:49:04;154.35;;;62.08;;
48665;SDS011;34452;50.796;4.994;2023-10-13T11:51:45;110.15;;;51.17;;
48665;SDS011;34452;50.796;4.994;2023-10-13T11:54:13;111.68;;;53.33;;
48665;SDS011;34452;50.796;4.994;2023-10-13T11:56:46;79.25;;;39.80;;
48665;SDS011;34452;50.796;4.994;2023-10-13T11:59:12;34.08;;;13.55;;
48665;SDS011;34452;50.796;4.994;2023-10-13T12:04:34;71.68;;;30.73;;
48665;SDS011;34452;50.796;4.994;2023-10-13T12:07:20;45.75;;;21.65;;
48665;SDS011;34452;50.796;4.994;2023-10-13T12:09:52;38.20;;;16.35;;
48665;SDS011;34452;50.796;4.994;2023-10-13T12:12:24;75.68;;;31.63;;
48665;SDS011;34452;50.796;4.994;2023-10-13T12:14:51;80.70;;;33.20;;
48665;SDS011;34452;50.796;4.994;2023-10-13T12:17:21;202.07;;;91.03;;
48665;SDS011;34452;50.796;4.994;2023-10-13T12:20:05;160.32;;;62.47;;
48665;SDS011;34452;50.796;4.994;2023-10-13T12:22:38;194.00;;;67.47;;
48665;SDS011;34452;50.796;4.994;2023-10-13T12:25:07;333.17;;;126.95;;
48665;SDS011;34452;50.796;4.994;2023-10-13T12:27:52;156.55;;;66.68;;
48665;SDS011;34452;50.796;4.994;2023-10-13T12:30:23;96.57;;;47.95;;
48665;SDS011;34452;50.796;4.994;2023-10-13T12:33:13;107.28;;;42.83;;
48665;SDS011;34452;50.796;4.994;2023-10-13T12:35:42;108.10;;;41.92;;
48665;SDS011;34452;50.796;4.994;2023-10-13T12:38:29;68.25;;;29.27;;
48665;SDS011;34452;50.796;4.994;2023-10-13T12:41:16;69.75;;;26.02;;
48665;SDS011;34452;50.796;4.994;2023-10-13T12:44:01;39.95;;;13.75;;
48665;SDS011;34452;50.796;4.994;2023-10-13T12:46:47;46.63;;;15.45;;
48665;SDS011;34452;50.796;4.994;2023-10-13T12:49:35;53.55;;;18.83;;
48665;SDS011;34452;50.796;4.994;2023-10-13T12:52:14;63.67;;;23.80;;
48665;SDS011;34452;50.796;4.994;2023-10-13T12:54:59;101.05;;;38.28;;
48665;SDS011;34452;50.796;4.994;2023-10-13T12:57:31;154.07;;;69.38;;
48665;SDS011;34452;50.796;4.994;2023-10-13T12:59:57;69.10;;;32.13;;
48665;SDS011;34452;50.796;4.994;2023-10-13T13:02:24;97.07;;;43.28;;
48665;SDS011;34452;50.796;4.994;2023-10-13T13:04:51;85.03;;;43.25;;
48665;SDS011;34452;50.796;4.994;2023-10-13T13:07:31;132.65;;;63.00;;
48665;SDS011;34452;50.796;4.994;2023-10-13T13:10:09;135.93;;;66.53;;
48665;SDS011;34452;50.796;4.994;2023-10-13T13:12:37;326.25;;;143.95;;
48665;SDS011;34452;50.796;4.994;2023-10-13T13:15:03;251.98;;;112.30;;
48665;SDS011;34452;50.796;4.994;2023-10-13T13:17:34;317.75;;;148.35;;
48665;SDS011;34452;50.796;4.994;2023-10-13T13:20:00;306.52;;;143.80;;
48665;SDS011;34452;50.796;4.994;2023-10-13T13:22:36;344.55;;;173.30;;
48665;SDS011;34452;50.796;4.994;2023-10-13T13:25:02;347.92;;;182.27;;
48665;SDS011;34452;50.796;4.994;2023-10-13T13:27:32;277.20;;;143.65;;
48665;SDS011;34452;50.796;4.994;2023-10-13T13:29:58;89.22;;;40.05;;
48665;SDS011;34452;50.796;4.994;2023-10-13T13:32:24;41.75;;;18.77;;
48665;SDS011;34452;50.796;4.994;2023-10-13T13:34:50;31.17;;;13.80;;
48665;SDS011;34452;50.796;4.994;2023-10-13T13:37:42;26.38;;;9.07;;
48665;SDS011;34452;50.796;4.994;2023-10-13T13:40:09;39.45;;;13.52;;
48665;SDS011;34452;50.796;4.994;2023-10-13T13:42:40;37.13;;;12.95;;
48665;SDS011;34452;50.796;4.994;2023-10-13T13:45:17;74.50;;;25.88;;
48665;SDS011;34452;50.796;4.994;2023-10-13T13:47:50;333.20;;;129.93;;
48665;SDS011;34452;50.796;4.994;2023-10-13T13:50:19;330.20;;;126.68;;
48665;SDS011;34452;50.796;4.994;2023-10-13T13:52:54;505.50;;;202.90;;
48665;SDS011;34452;50.796;4.994;2023-10-13T13:55:21;383.20;;;147.95;;
48665;SDS011;34452;50.796;4.994;2023-10-13T13:57:49;602.45;;;283.38;;
48665;SDS011;34452;50.796;4.994;2023-10-13T14:00:19;662.17;;;287.77;;
48665;SDS011;34452;50.796;4.994;2023-10-13T14:03:06;577.38;;;254.10;;
48665;SDS011;34452;50.796;4.994;2023-10-13T14:05:43;638.88;;;310.65;;
48665;SDS011;34452;50.796;4.994;2023-10-13T14:08:09;592.95;;;271.40;;
48665;SDS011;34452;50.796;4.994;2023-10-13T14:10:40;452.38;;;231.02;;
48665;SDS011;34452;50.796;4.994;2023-10-13T14:13:24;417.55;;;213.70;;
48665;SDS011;34452;50.796;4.994;2023-10-13T14:16:10;518.58;;;273.58;;
48665;SDS011;34452;50.796;4.994;2023-10-13T14:18:50;337.80;;;134.75;;
48665;SDS011;34452;50.796;4.994;2023-10-13T14:21:17;435.20;;;176.73;;
48665;SDS011;34452;50.796;4.994;2023-10-13T14:23:44;954.45;;;448.40;;
48665;SDS011;34452;50.796;4.994;2023-10-13T14:26:13;612.17;;;231.45;;
48665;SDS011;34452;50.796;4.994;2023-10-13T14:28:51;467.65;;;146.48;;
48665;SDS011;34452;50.796;4.994;2023-10-13T14:31:27;696.90;;;260.25;;
48665;SDS011;34452;50.796;4.994;2023-10-13T14:33:53;859.35;;;348.27;;
48665;SDS011;34452;50.796;4.994;2023-10-13T14:36:19;368.38;;;109.57;;
48665;SDS011;34452;50.796;4.994;2023-10-13T14:38:47;241.80;;;74.00;;
48665;SDS011;34452;50.796;4.994;2023-10-13T14:41:16;155.32;;;55.15;;
48665;SDS011;34452;50.796;4.994;2023-10-13T14:43:45;208.65;;;72.65;;
48665;SDS011;34452;50.796;4.994;2023-10-13T14:46:17;189.18;;;68.40;;
48665;SDS011;34452;50.796;4.994;2023-10-13T14:48:48;301.88;;;105.18;;
48665;SDS011;34452;50.796;4.994;2023-10-13T14:51:17;324.95;;;113.55;;
48665;SDS011;34452;50.796;4.994;2023-10-13T14:53:43;330.38;;;104.65;;
48665;SDS011;34452;50.796;4.994;2023-10-13T14:56:10;458.55;;;153.88;;
48665;SDS011;34452;50.796;4.994;2023-10-13T14:58:36;447.38;;;156.02;;
48665;SDS011;34452;50.796;4.994;2023-10-13T15:01:17;655.40;;;294.20;;
48665;SDS011;34452;50.796;4.994;2023-10-13T15:03:45;670.65;;;285.23;;
48665;SDS011;34452;50.796;4.994;2023-10-13T15:06:18;479.45;;;193.00;;
48665;SDS011;34452;50.796;4.994;2023-10-13T15:08:54;651.60;;;274.77;;
48665;SDS011;34452;50.796;4.994;2023-10-13T15:11:21;949.22;;;453.15;;
48665;SDS011;34452;50.796;4.994;2023-10-13T15:13:52;949.00;;;507.88;;
48665;SDS011;34452;50.796;4.994;2023-10-13T15:16:19;507.35;;;292.65;;
48665;SDS011;34452;50.796;4.994;2023-10-13T15:18:49;573.88;;;341.48;;
48665;SDS011;34452;50.796;4.994;2023-10-13T15:21:24;553.05;;;342.38;;
48665;SDS011;34452;50.796;4.994;2023-10-13T15:24:06;652.03;;;427.13;;
48665;SDS011;34452;50.796;4.994;2023-10-13T15:26:39;502.75;;;293.58;;
48665;SDS011;34452;50.796;4.994;2023-10-13T15:29:07;486.35;;;301.17;;
48665;SDS011;34452;50.796;4.994;2023-10-13T15:31:44;487.40;;;303.17;;
48665;SDS011;34452;50.796;4.994;2023-10-13T15:34:40;440.90;;;253.20;;
48665;SDS011;34452;50.796;4.994;2023-10-13T15:37:05;559.85;;;362.45;;
48665;SDS011;34452;50.796;4.994;2023-10-13T15:39:31;436.70;;;283.42;;
48665;SDS011;34452;50.796;4.994;2023-10-13T15:41:57;344.60;;;218.73;;
48665;SDS011;34452;50.796;4.994;2023-10-13T15:44:27;369.58;;;205.40;;
48665;SDS011;34452;50.796;4.994;2023-10-13T15:46:57;582.20;;;343.25;;